Terminal Aerodrome Forecast
Issued by NWS Mt. Holly, NJ

Home | Current Version | Previous Version | Text Only | Print | Product List | Glossary On
Versions: 1 2 3 4 5 6 7 8 9 10 11 12 13 14 15 16 17 18 19 20 21 22 23 24 25
838
FTUS41 KPHI 062322
TAFABE
TAF
KABE 062322Z 0700/0724 08011KT P6SM OVC015
      TEMPO 0701/0705 3SM BR BKN007 OVC015
     FM070500 05004KT 2SM BR OVC007
     FM071400 05003KT P6SM BKN025
     FM071800 VRB04KT P6SM BKN035=

USA.gov is the U.S. government's official web portal to all federal, state and local government web resources and services.